sensor_id;sensor_type;location;lat;lon;timestamp;P1;durP1;ratioP1;P2;durP2;ratioP2
9888;SDS011;4983;42.112;24.738;2022-12-18T00:01:48;62.00;;;44.10;;
9888;SDS011;4983;42.112;24.738;2022-12-18T00:04:15;53.47;;;39.30;;
9888;SDS011;4983;42.112;24.738;2022-12-18T00:06:43;67.37;;;42.63;;
9888;SDS011;4983;42.112;24.738;2022-12-18T00:09:11;114.20;;;49.13;;
9888;SDS011;4983;42.112;24.738;2022-12-18T00:11:37;120.50;;;48.30;;
9888;SDS011;4983;42.112;24.738;2022-12-18T00:14:05;181.03;;;51.80;;
9888;SDS011;4983;42.112;24.738;2022-12-18T00:16:32;122.47;;;49.13;;
9888;SDS011;4983;42.112;24.738;2022-12-18T00:19:00;158.10;;;57.33;;
9888;SDS011;4983;42.112;24.738;2022-12-18T00:21:27;184.40;;;60.60;;
9888;SDS011;4983;42.112;24.738;2022-12-18T00:23:54;168.27;;;62.47;;
9888;SDS011;4983;42.112;24.738;2022-12-18T00:26:22;206.47;;;59.57;;
9888;SDS011;4983;42.112;24.738;2022-12-18T00:28:49;240.60;;;51.03;;
9888;SDS011;4983;42.112;24.738;2022-12-18T00:31:18;159.43;;;47.47;;
9888;SDS011;4983;42.112;24.738;2022-12-18T00:33:45;328.47;;;63.17;;
9888;SDS011;4983;42.112;24.738;2022-12-18T00:36:14;139.07;;;52.60;;
9888;SDS011;4983;42.112;24.738;2022-12-18T00:38:41;87.60;;;43.23;;
9888;SDS011;4983;42.112;24.738;2022-12-18T00:41:08;172.37;;;47.13;;
9888;SDS011;4983;42.112;24.738;2022-12-18T00:43:35;159.70;;;45.80;;
9888;SDS011;4983;42.112;24.738;2022-12-18T00:46:01;145.57;;;43.80;;
9888;SDS011;4983;42.112;24.738;2022-12-18T00:48:30;72.37;;;38.97;;
9888;SDS011;4983;42.112;24.738;2022-12-18T00:50:57;65.27;;;36.07;;
9888;SDS011;4983;42.112;24.738;2022-12-18T00:53:23;67.30;;;36.47;;
9888;SDS011;4983;42.112;24.738;2022-12-18T00:55:50;105.80;;;37.33;;
9888;SDS011;4983;42.112;24.738;2022-12-18T00:58:17;72.53;;;35.47;;
9888;SDS011;4983;42.112;24.738;2022-12-18T01:00:44;61.47;;;34.90;;
9888;SDS011;4983;42.112;24.738;2022-12-18T01:03:12;171.77;;;39.17;;
9888;SDS011;4983;42.112;24.738;2022-12-18T01:05:41;55.97;;;34.83;;
9888;SDS011;4983;42.112;24.738;2022-12-18T01:08:08;58.27;;;34.33;;
9888;SDS011;4983;42.112;24.738;2022-12-18T01:10:34;57.13;;;35.20;;
9888;SDS011;4983;42.112;24.738;2022-12-18T01:13:01;44.37;;;34.00;;
9888;SDS011;4983;42.112;24.738;2022-12-18T01:15:27;59.50;;;49.53;;
9888;SDS011;4983;42.112;24.738;2022-12-18T01:17:54;56.13;;;40.10;;
9888;SDS011;4983;42.112;24.738;2022-12-18T01:20:20;43.10;;;34.53;;
9888;SDS011;4983;42.112;24.738;2022-12-18T01:22:48;51.93;;;39.63;;
9888;SDS011;4983;42.112;24.738;2022-12-18T01:25:15;48.93;;;37.53;;
9888;SDS011;4983;42.112;24.738;2022-12-18T01:27:42;60.83;;;38.67;;
9888;SDS011;4983;42.112;24.738;2022-12-18T01:30:09;49.77;;;37.27;;
9888;SDS011;4983;42.112;24.738;2022-12-18T01:32:36;42.47;;;36.10;;
9888;SDS011;4983;42.112;24.738;2022-12-18T01:35:03;49.50;;;35.27;;
9888;SDS011;4983;42.112;24.738;2022-12-18T01:37:30;43.63;;;32.87;;
9888;SDS011;4983;42.112;24.738;2022-12-18T01:39:58;52.43;;;34.70;;
9888;SDS011;4983;42.112;24.738;2022-12-18T01:42:25;43.97;;;33.87;;
9888;SDS011;4983;42.112;24.738;2022-12-18T01:44:59;40.40;;;32.73;;
9888;SDS011;4983;42.112;24.738;2022-12-18T01:47:27;44.20;;;35.30;;
9888;SDS011;4983;42.112;24.738;2022-12-18T01:49:55;47.97;;;34.50;;
9888;SDS011;4983;42.112;24.738;2022-12-18T01:52:22;44.57;;;34.70;;
9888;SDS011;4983;42.112;24.738;2022-12-18T01:54:51;44.10;;;34.20;;
9888;SDS011;4983;42.112;24.738;2022-12-18T01:57:19;38.40;;;30.83;;
9888;SDS011;4983;42.112;24.738;2022-12-18T01:59:47;39.57;;;31.40;;
9888;SDS011;4983;42.112;24.738;2022-12-18T02:02:16;36.73;;;30.60;;
9888;SDS011;4983;42.112;24.738;2022-12-18T02:04:42;38.03;;;30.33;;
9888;SDS011;4983;42.112;24.738;2022-12-18T02:07:10;35.03;;;29.90;;
9888;SDS011;4983;42.112;24.738;2022-12-18T02:09:40;33.17;;;28.37;;
9888;SDS011;4983;42.112;24.738;2022-12-18T02:12:10;33.17;;;28.30;;
9888;SDS011;4983;42.112;24.738;2022-12-18T02:14:42;33.10;;;28.27;;
9888;SDS011;4983;42.112;24.738;2022-12-18T02:17:11;29.90;;;25.93;;
9888;SDS011;4983;42.112;24.738;2022-12-18T02:19:54;29.60;;;25.47;;
9888;SDS011;4983;42.112;24.738;2022-12-18T02:22:26;29.47;;;25.93;;
9888;SDS011;4983;42.112;24.738;2022-12-18T02:24:58;27.97;;;24.67;;
9888;SDS011;4983;42.112;24.738;2022-12-18T02:27:27;28.37;;;25.07;;
9888;SDS011;4983;42.112;24.738;2022-12-18T02:29:56;27.83;;;24.00;;
9888;SDS011;4983;42.112;24.738;2022-12-18T02:32:24;27.33;;;24.00;;
9888;SDS011;4983;42.112;24.738;2022-12-18T02:34:51;26.53;;;23.67;;
9888;SDS011;4983;42.112;24.738;2022-12-18T02:37:19;26.87;;;23.97;;
9888;SDS011;4983;42.112;24.738;2022-12-18T02:39:46;26.87;;;22.50;;
9888;SDS011;4983;42.112;24.738;2022-12-18T02:42:13;29.27;;;22.43;;
9888;SDS011;4983;42.112;24.738;2022-12-18T02:44:45;27.37;;;24.57;;
9888;SDS011;4983;42.112;24.738;2022-12-18T02:47:12;26.23;;;23.30;;
9888;SDS011;4983;42.112;24.738;2022-12-18T02:49:41;38.07;;;34.03;;
9888;SDS011;4983;42.112;24.738;2022-12-18T02:52:12;35.67;;;31.77;;
9888;SDS011;4983;42.112;24.738;2022-12-18T02:54:47;39.73;;;34.97;;
9888;SDS011;4983;42.112;24.738;2022-12-18T02:57:19;34.23;;;29.40;;
9888;SDS011;4983;42.112;24.738;2022-12-18T02:59:53;26.67;;;23.77;;
9888;SDS011;4983;42.112;24.738;2022-12-18T03:02:23;28.40;;;21.83;;
9888;SDS011;4983;42.112;24.738;2022-12-18T03:04:54;25.97;;;22.57;;
9888;SDS011;4983;42.112;24.738;2022-12-18T03:07:26;28.57;;;22.73;;
9888;SDS011;4983;42.112;24.738;2022-12-18T03:09:54;25.53;;;21.63;;
9888;SDS011;4983;42.112;24.738;2022-12-18T03:12:22;25.23;;;21.67;;
9888;SDS011;4983;42.112;24.738;2022-12-18T03:14:56;25.03;;;21.93;;
9888;SDS011;4983;42.112;24.738;2022-12-18T03:17:25;27.67;;;22.23;;
9888;SDS011;4983;42.112;24.738;2022-12-18T03:19:53;28.10;;;22.10;;
9888;SDS011;4983;42.112;24.738;2022-12-18T03:22:20;28.97;;;22.70;;
9888;SDS011;4983;42.112;24.738;2022-12-18T03:24:48;27.13;;;22.27;;
9888;SDS011;4983;42.112;24.738;2022-12-18T03:27:15;28.43;;;21.83;;
9888;SDS011;4983;42.112;24.738;2022-12-18T03:29:45;25.03;;;21.30;;
9888;SDS011;4983;42.112;24.738;2022-12-18T03:32:15;25.67;;;22.70;;
9888;SDS011;4983;42.112;24.738;2022-12-18T03:34:42;26.47;;;21.13;;
9888;SDS011;4983;42.112;24.738;2022-12-18T03:37:10;27.77;;;21.83;;
9888;SDS011;4983;42.112;24.738;2022-12-18T03:39:36;27.00;;;22.53;;
9888;SDS011;4983;42.112;24.738;2022-12-18T03:42:05;26.80;;;21.93;;
9888;SDS011;4983;42.112;24.738;2022-12-18T03:44:34;24.37;;;20.27;;
9888;SDS011;4983;42.112;24.738;2022-12-18T03:47:04;25.50;;;22.70;;
9888;SDS011;4983;42.112;24.738;2022-12-18T03:49:34;25.80;;;20.57;;
9888;SDS011;4983;42.112;24.738;2022-12-18T03:52:02;26.67;;;21.93;;
9888;SDS011;4983;42.112;24.738;2022-12-18T03:54:29;26.57;;;21.80;;
9888;SDS011;4983;42.112;24.738;2022-12-18T03:56:58;24.03;;;21.40;;
9888;SDS011;4983;42.112;24.738;2022-12-18T03:59:25;24.83;;;20.83;;
9888;SDS011;4983;42.112;24.738;2022-12-18T04:01:53;23.50;;;20.37;;
9888;SDS011;4983;42.112;24.738;2022-12-18T04:04:21;22.80;;;20.03;;
9888;SDS011;4983;42.112;24.738;2022-12-18T04:06:49;25.43;;;19.57;;
9888;SDS011;4983;42.112;24.738;2022-12-18T04:09:16;22.03;;;18.80;;
9888;SDS011;4983;42.112;24.738;2022-12-18T04:11:43;21.13;;;18.80;;
9888;SDS011;4983;42.112;24.738;2022-12-18T04:14:10;23.23;;;19.50;;
9888;SDS011;4983;42.112;24.738;2022-12-18T04:16:36;20.93;;;18.43;;
9888;SDS011;4983;42.112;24.738;2022-12-18T04:19:03;21.10;;;17.70;;
9888;SDS011;4983;42.112;24.738;2022-12-18T04:21:30;20.03;;;17.37;;
9888;SDS011;4983;42.112;24.738;2022-12-18T04:23:58;20.13;;;16.23;;
9888;SDS011;4983;42.112;24.738;2022-12-18T04:26:25;16.63;;;14.83;;
9888;SDS011;4983;42.112;24.738;2022-12-18T04:28:51;16.40;;;13.93;;
9888;SDS011;4983;42.112;24.738;2022-12-18T04:31:18;15.43;;;13.63;;
9888;SDS011;4983;42.112;24.738;2022-12-18T04:33:45;13.70;;;12.30;;
9888;SDS011;4983;42.112;24.738;2022-12-18T04:36:11;12.43;;;11.13;;
9888;SDS011;4983;42.112;24.738;2022-12-18T04:38:38;12.93;;;11.57;;
9888;SDS011;4983;42.112;24.738;2022-12-18T04:41:06;10.80;;;9.47;;
9888;SDS011;4983;42.112;24.738;2022-12-18T04:43:33;11.13;;;8.60;;
9888;SDS011;4983;42.112;24.738;2022-12-18T04:46:03;10.40;;;9.30;;
9888;SDS011;4983;42.112;24.738;2022-12-18T04:48:29;10.17;;;9.10;;
9888;SDS011;4983;42.112;24.738;2022-12-18T04:50:56;10.57;;;8.07;;
9888;SDS011;4983;42.112;24.738;2022-12-18T04:53:22;8.90;;;8.00;;
9888;SDS011;4983;42.112;24.738;2022-12-18T04:55:49;9.60;;;8.60;;
9888;SDS011;4983;42.112;24.738;2022-12-18T04:58:17;9.63;;;7.73;;
9888;SDS011;4983;42.112;24.738;2022-12-18T05:00:43;10.40;;;7.40;;
9888;SDS011;4983;42.112;24.738;2022-12-18T05:03:10;7.80;;;7.00;;
9888;SDS011;4983;42.112;24.738;2022-12-18T05:05:36;9.43;;;7.53;;
9888;SDS011;4983;42.112;24.738;2022-12-18T05:08:03;8.47;;;7.57;;
9888;SDS011;4983;42.112;24.738;2022-12-18T05:10:30;9.87;;;8.13;;
9888;SDS011;4983;42.112;24.738;2022-12-18T05:12:57;10.50;;;9.13;;
9888;SDS011;4983;42.112;24.738;2022-12-18T05:15:28;11.60;;;8.97;;
9888;SDS011;4983;42.112;24.738;2022-12-18T05:17:55;10.23;;;8.60;;
9888;SDS011;4983;42.112;24.738;2022-12-18T05:20:22;10.10;;;8.60;;
9888;SDS011;4983;42.112;24.738;2022-12-18T05:22:48;9.53;;;8.50;;
9888;SDS011;4983;42.112;24.738;2022-12-18T05:25:15;11.17;;;9.63;;
9888;SDS011;4983;42.112;24.738;2022-12-18T05:27:42;13.77;;;11.47;;
9888;SDS011;4983;42.112;24.738;2022-12-18T05:30:09;14.67;;;11.23;;
9888;SDS011;4983;42.112;24.738;2022-12-18T05:32:37;11.90;;;10.67;;
9888;SDS011;4983;42.112;24.738;2022-12-18T05:35:04;12.77;;;10.57;;
9888;SDS011;4983;42.112;24.738;2022-12-18T05:37:32;10.93;;;9.83;;
9888;SDS011;4983;42.112;24.738;2022-12-18T05:39:58;11.13;;;9.13;;
9888;SDS011;4983;42.112;24.738;2022-12-18T05:42:25;9.27;;;8.37;;
9888;SDS011;4983;42.112;24.738;2022-12-18T05:44:52;8.70;;;7.77;;
9888;SDS011;4983;42.112;24.738;2022-12-18T05:47:19;9.00;;;8.10;;
9888;SDS011;4983;42.112;24.738;2022-12-18T05:49:47;10.40;;;9.27;;
9888;SDS011;4983;42.112;24.738;2022-12-18T05:52:14;9.50;;;8.60;;
9888;SDS011;4983;42.112;24.738;2022-12-18T05:54:40;8.80;;;7.90;;
9888;SDS011;4983;42.112;24.738;2022-12-18T05:57:07;9.40;;;7.73;;
9888;SDS011;4983;42.112;24.738;2022-12-18T05:59:33;10.17;;;9.07;;
9888;SDS011;4983;42.112;24.738;2022-12-18T06:02:00;10.87;;;8.90;;
9888;SDS011;4983;42.112;24.738;2022-12-18T06:04:26;9.77;;;8.27;;
9888;SDS011;4983;42.112;24.738;2022-12-18T06:06:57;9.10;;;8.20;;
9888;SDS011;4983;42.112;24.738;2022-12-18T06:09:23;9.13;;;8.23;;
9888;SDS011;4983;42.112;24.738;2022-12-18T06:11:51;9.67;;;8.67;;
9888;SDS011;4983;42.112;24.738;2022-12-18T06:14:18;10.60;;;8.67;;
9888;SDS011;4983;42.112;24.738;2022-12-18T06:16:44;9.83;;;8.80;;
9888;SDS011;4983;42.112;24.738;2022-12-18T06:19:13;8.43;;;7.50;;
9888;SDS011;4983;42.112;24.738;2022-12-18T06:21:40;9.13;;;7.30;;
9888;SDS011;4983;42.112;24.738;2022-12-18T06:24:08;10.70;;;8.73;;
9888;SDS011;4983;42.112;24.738;2022-12-18T06:26:36;10.80;;;8.53;;
9888;SDS011;4983;42.112;24.738;2022-12-18T06:29:03;10.67;;;8.77;;
9888;SDS011;4983;42.112;24.738;2022-12-18T06:31:30;9.63;;;8.27;;
9888;SDS011;4983;42.112;24.738;2022-12-18T06:33:57;9.13;;;7.53;;
9888;SDS011;4983;42.112;24.738;2022-12-18T06:36:23;7.40;;;6.70;;
9888;SDS011;4983;42.112;24.738;2022-12-18T06:38:50;9.20;;;7.90;;
9888;SDS011;4983;42.112;24.738;2022-12-18T06:41:19;8.37;;;7.40;;
9888;SDS011;4983;42.112;24.738;2022-12-18T06:43:47;8.17;;;6.93;;
9888;SDS011;4983;42.112;24.738;2022-12-18T06:46:13;8.30;;;7.43;;
9888;SDS011;4983;42.112;24.738;2022-12-18T06:48:40;8.43;;;7.20;;
9888;SDS011;4983;42.112;24.738;2022-12-18T06:51:07;7.70;;;6.90;;
9888;SDS011;4983;42.112;24.738;2022-12-18T06:53:34;7.67;;;6.87;;
9888;SDS011;4983;42.112;24.738;2022-12-18T06:56:00;7.93;;;7.13;;
9888;SDS011;4983;42.112;24.738;2022-12-18T06:58:29;7.70;;;6.90;;
9888;SDS011;4983;42.112;24.738;2022-12-18T07:00:59;9.37;;;7.47;;
9888;SDS011;4983;42.112;24.738;2022-12-18T07:03:26;8.77;;;7.57;;
9888;SDS011;4983;42.112;24.738;2022-12-18T07:05:52;7.80;;;6.70;;
9888;SDS011;4983;42.112;24.738;2022-12-18T07:08:19;8.10;;;6.77;;
9888;SDS011;4983;42.112;24.738;2022-12-18T07:10:46;7.13;;;6.43;;
9888;SDS011;4983;42.112;24.738;2022-12-18T07:13:14;8.23;;;7.07;;
9888;SDS011;4983;42.112;24.738;2022-12-18T07:15:42;10.17;;;7.60;;
9888;SDS011;4983;42.112;24.738;2022-12-18T07:18:08;8.13;;;7.20;;
9888;SDS011;4983;42.112;24.738;2022-12-18T07:20:35;7.93;;;7.00;;
9888;SDS011;4983;42.112;24.738;2022-12-18T07:23:02;8.40;;;7.37;;
9888;SDS011;4983;42.112;24.738;2022-12-18T07:25:28;25.87;;;13.67;;
9888;SDS011;4983;42.112;24.738;2022-12-18T07:27:56;23.40;;;14.10;;
9888;SDS011;4983;42.112;24.738;2022-12-18T07:30:22;8.97;;;7.83;;
9888;SDS011;4983;42.112;24.738;2022-12-18T07:32:50;8.17;;;6.90;;
9888;SDS011;4983;42.112;24.738;2022-12-18T07:35:17;8.20;;;6.70;;
9888;SDS011;4983;42.112;24.738;2022-12-18T07:37:44;8.27;;;7.17;;
9888;SDS011;4983;42.112;24.738;2022-12-18T07:40:11;15.20;;;12.13;;
9888;SDS011;4983;42.112;24.738;2022-12-18T07:42:37;8.50;;;7.23;;
9888;SDS011;4983;42.112;24.738;2022-12-18T07:45:05;11.33;;;7.43;;
9888;SDS011;4983;42.112;24.738;2022-12-18T07:47:33;11.60;;;8.33;;
9888;SDS011;4983;42.112;24.738;2022-12-18T07:50:01;7.60;;;6.80;;
9888;SDS011;4983;42.112;24.738;2022-12-18T07:52:28;8.90;;;7.87;;
9888;SDS011;4983;42.112;24.738;2022-12-18T07:54:54;10.53;;;8.50;;
9888;SDS011;4983;42.112;24.738;2022-12-18T07:57:21;11.20;;;7.83;;
9888;SDS011;4983;42.112;24.738;2022-12-18T07:59:47;24.17;;;15.23;;
9888;SDS011;4983;42.112;24.738;2022-12-18T08:02:14;11.73;;;8.50;;
9888;SDS011;4983;42.112;24.738;2022-12-18T08:04:41;9.27;;;7.63;;
9888;SDS011;4983;42.112;24.738;2022-12-18T08:07:08;8.40;;;7.07;;
9888;SDS011;4983;42.112;24.738;2022-12-18T08:09:35;8.27;;;7.23;;
9888;SDS011;4983;42.112;24.738;2022-12-18T08:12:03;11.53;;;9.03;;
9888;SDS011;4983;42.112;24.738;2022-12-18T08:14:29;8.87;;;7.33;;
9888;SDS011;4983;42.112;24.738;2022-12-18T08:16:56;10.07;;;6.97;;
9888;SDS011;4983;42.112;24.738;2022-12-18T08:19:23;8.98;;;7.93;;
9888;SDS011;4983;42.112;24.738;2022-12-18T08:21:49;9.13;;;7.40;;
9888;SDS011;4983;42.112;24.738;2022-12-18T08:24:18;10.67;;;7.57;;
9888;SDS011;4983;42.112;24.738;2022-12-18T08:26:44;9.50;;;7.37;;
9888;SDS011;4983;42.112;24.738;2022-12-18T08:29:11;8.53;;;6.77;;
9888;SDS011;4983;42.112;24.738;2022-12-18T08:31:38;11.03;;;7.50;;
9888;SDS011;4983;42.112;24.738;2022-12-18T08:34:07;9.17;;;7.23;;
9888;SDS011;4983;42.112;24.738;2022-12-18T08:36:34;9.57;;;7.30;;
9888;SDS011;4983;42.112;24.738;2022-12-18T08:39:00;9.40;;;7.20;;
9888;SDS011;4983;42.112;24.738;2022-12-18T08:41:28;15.73;;;7.63;;
9888;SDS011;4983;42.112;24.738;2022-12-18T08:43:55;9.67;;;7.57;;
9888;SDS011;4983;42.112;24.738;2022-12-18T08:46:40;9.07;;;7.43;;
9888;SDS011;4983;42.112;24.738;2022-12-18T08:49:07;11.37;;;7.83;;
9888;SDS011;4983;42.112;24.738;2022-12-18T08:51:34;13.20;;;8.70;;
9888;SDS011;4983;42.112;24.738;2022-12-18T08:54:01;12.70;;;8.40;;
9888;SDS011;4983;42.112;24.738;2022-12-18T08:56:29;12.17;;;9.03;;
9888;SDS011;4983;42.112;24.738;2022-12-18T08:58:56;13.43;;;10.77;;
9888;SDS011;4983;42.112;24.738;2022-12-18T09:01:23;12.13;;;10.30;;
9888;SDS011;4983;42.112;24.738;2022-12-18T09:03:50;12.17;;;8.90;;
9888;SDS011;4983;42.112;24.738;2022-12-18T09:06:18;11.73;;;7.67;;
9888;SDS011;4983;42.112;24.738;2022-12-18T09:08:45;8.03;;;7.23;;
9888;SDS011;4983;42.112;24.738;2022-12-18T09:11:12;10.73;;;7.67;;
9888;SDS011;4983;42.112;24.738;2022-12-18T09:13:41;11.00;;;8.07;;
9888;SDS011;4983;42.112;24.738;2022-12-18T09:16:07;10.20;;;7.57;;
9888;SDS011;4983;42.112;24.738;2022-12-18T09:18:35;10.23;;;8.30;;
9888;SDS011;4983;42.112;24.738;2022-12-18T09:21:07;7.90;;;7.00;;
9888;SDS011;4983;42.112;24.738;2022-12-18T09:23:33;8.30;;;7.00;;
9888;SDS011;4983;42.112;24.738;2022-12-18T09:26:00;11.97;;;7.50;;
9888;SDS011;4983;42.112;24.738;2022-12-18T09:28:27;10.23;;;7.43;;
9888;SDS011;4983;42.112;24.738;2022-12-18T09:30:55;12.10;;;8.30;;
9888;SDS011;4983;42.112;24.738;2022-12-18T09:33:22;9.73;;;7.27;;
9888;SDS011;4983;42.112;24.738;2022-12-18T09:35:48;11.60;;;8.37;;
9888;SDS011;4983;42.112;24.738;2022-12-18T09:38:16;10.63;;;7.80;;
9888;SDS011;4983;42.112;24.738;2022-12-18T09:40:44;12.30;;;7.33;;
9888;SDS011;4983;42.112;24.738;2022-12-18T09:43:13;15.40;;;10.83;;
9888;SDS011;4983;42.112;24.738;2022-12-18T09:45:42;10.07;;;7.40;;
9888;SDS011;4983;42.112;24.738;2022-12-18T09:48:11;8.93;;;6.80;;
9888;SDS011;4983;42.112;24.738;2022-12-18T09:50:40;8.83;;;7.40;;
9888;SDS011;4983;42.112;24.738;2022-12-18T09:53:09;9.90;;;7.40;;
9888;SDS011;4983;42.112;24.738;2022-12-18T09:55:39;9.53;;;7.93;;
9888;SDS011;4983;42.112;24.738;2022-12-18T09:58:07;10.77;;;7.23;;
9888;SDS011;4983;42.112;24.738;2022-12-18T10:00:38;8.57;;;7.07;;
9888;SDS011;4983;42.112;24.738;2022-12-18T10:03:08;7.90;;;7.20;;
9888;SDS011;4983;42.112;24.738;2022-12-18T10:05:38;11.93;;;7.17;;
9888;SDS011;4983;42.112;24.738;2022-12-18T10:08:09;7.77;;;7.07;;
9888;SDS011;4983;42.112;24.738;2022-12-18T10:10:39;10.70;;;7.60;;
9888;SDS011;4983;42.112;24.738;2022-12-18T10:13:10;8.03;;;6.83;;
9888;SDS011;4983;42.112;24.738;2022-12-18T10:15:45;11.07;;;7.63;;
9888;SDS011;4983;42.112;24.738;2022-12-18T10:18:20;9.10;;;6.33;;
9888;SDS011;4983;42.112;24.738;2022-12-18T10:20:52;11.30;;;7.63;;
9888;SDS011;4983;42.112;24.738;2022-12-18T10:23:20;11.13;;;8.67;;
9888;SDS011;4983;42.112;24.738;2022-12-18T10:25:50;11.10;;;8.20;;
9888;SDS011;4983;42.112;24.738;2022-12-18T10:28:20;15.67;;;13.87;;
9888;SDS011;4983;42.112;24.738;2022-12-18T10:30:46;15.17;;;9.20;;
9888;SDS011;4983;42.112;24.738;2022-12-18T10:33:13;8.97;;;7.17;;
9888;SDS011;4983;42.112;24.738;2022-12-18T10:35:43;9.63;;;7.17;;
9888;SDS011;4983;42.112;24.738;2022-12-18T10:40:57;11.10;;;7.63;;
9888;SDS011;4983;42.112;24.738;2022-12-18T10:43:25;20.50;;;7.93;;
9888;SDS011;4983;42.112;24.738;2022-12-18T10:46:07;10.77;;;6.60;;
9888;SDS011;4983;42.112;24.738;2022-12-18T10:48:39;8.77;;;6.87;;
9888;SDS011;4983;42.112;24.738;2022-12-18T10:51:07;7.17;;;6.23;;
9888;SDS011;4983;42.112;24.738;2022-12-18T10:53:35;8.00;;;7.00;;
9888;SDS011;4983;42.112;24.738;2022-12-18T10:56:04;8.67;;;6.90;;
9888;SDS011;4983;42.112;24.738;2022-12-18T10:58:32;8.03;;;7.23;;
9888;SDS011;4983;42.112;24.738;2022-12-18T11:01:06;8.73;;;7.40;;
9888;SDS011;4983;42.112;24.738;2022-12-18T11:03:34;9.13;;;8.17;;
9888;SDS011;4983;42.112;24.738;2022-12-18T11:06:02;9.37;;;7.47;;
9888;SDS011;4983;42.112;24.738;2022-12-18T11:08:29;9.50;;;8.10;;
9888;SDS011;4983;42.112;24.738;2022-12-18T11:10:56;13.40;;;9.93;;
9888;SDS011;4983;42.112;24.738;2022-12-18T11:13:24;13.53;;;9.13;;
9888;SDS011;4983;42.112;24.738;2022-12-18T11:15:52;13.33;;;9.83;;
9888;SDS011;4983;42.112;24.738;2022-12-18T11:18:20;14.97;;;11.50;;
9888;SDS011;4983;42.112;24.738;2022-12-18T11:20:51;13.80;;;10.90;;
9888;SDS011;4983;42.112;24.738;2022-12-18T11:23:18;12.43;;;10.17;;
9888;SDS011;4983;42.112;24.738;2022-12-18T11:25:51;13.27;;;11.03;;
9888;SDS011;4983;42.112;24.738;2022-12-18T11:28:27;14.67;;;11.07;;
9888;SDS011;4983;42.112;24.738;2022-12-18T11:31:08;12.93;;;11.00;;
9888;SDS011;4983;42.112;24.738;2022-12-18T11:33:35;11.40;;;9.90;;
9888;SDS011;4983;42.112;24.738;2022-12-18T11:36:03;11.13;;;9.90;;
9888;SDS011;4983;42.112;24.738;2022-12-18T11:38:31;12.57;;;9.43;;
9888;SDS011;4983;42.112;24.738;2022-12-18T11:40:59;11.47;;;10.23;;
9888;SDS011;4983;42.112;24.738;2022-12-18T11:43:28;14.13;;;10.87;;
9888;SDS011;4983;42.112;24.738;2022-12-18T11:45:58;12.17;;;10.20;;
9888;SDS011;4983;42.112;24.738;2022-12-18T11:48:26;11.87;;;10.27;;
9888;SDS011;4983;42.112;24.738;2022-12-18T11:50:54;12.30;;;10.77;;
9888;SDS011;4983;42.112;24.738;2022-12-18T11:53:22;13.67;;;10.83;;
9888;SDS011;4983;42.112;24.738;2022-12-18T11:55:54;13.43;;;10.27;;
9888;SDS011;4983;42.112;24.738;2022-12-18T12:01:10;12.87;;;9.70;;
9888;SDS011;4983;42.112;24.738;2022-12-18T12:03:46;14.07;;;10.17;;
9888;SDS011;4983;42.112;24.738;2022-12-18T12:06:16;12.00;;;8.67;;
9888;SDS011;4983;42.112;24.738;2022-12-18T12:08:49;12.27;;;9.13;;
9888;SDS011;4983;42.112;24.738;2022-12-18T12:11:20;11.67;;;9.10;;
9888;SDS011;4983;42.112;24.738;2022-12-18T12:14:01;10.23;;;8.93;;
9888;SDS011;4983;42.112;24.738;2022-12-18T12:16:32;11.37;;;8.90;;
9888;SDS011;4983;42.112;24.738;2022-12-18T12:19:04;12.77;;;9.83;;
9888;SDS011;4983;42.112;24.738;2022-12-18T12:21:36;12.90;;;9.63;;
9888;SDS011;4983;42.112;24.738;2022-12-18T12:24:07;11.13;;;9.30;;
9888;SDS011;4983;42.112;24.738;2022-12-18T12:26:38;11.03;;;8.93;;
9888;SDS011;4983;42.112;24.738;2022-12-18T12:29:21;12.63;;;9.47;;
9888;SDS011;4983;42.112;24.738;2022-12-18T12:31:57;9.73;;;8.60;;
9888;SDS011;4983;42.112;24.738;2022-12-18T12:34:30;11.17;;;9.47;;
9888;SDS011;4983;42.112;24.738;2022-12-18T12:37:01;11.43;;;8.57;;
9888;SDS011;4983;42.112;24.738;2022-12-18T12:39:32;10.97;;;9.20;;
9888;SDS011;4983;42.112;24.738;2022-12-18T12:42:01;11.23;;;9.60;;
9888;SDS011;4983;42.112;24.738;2022-12-18T12:44:47;11.53;;;9.17;;
9888;SDS011;4983;42.112;24.738;2022-12-18T12:47:16;9.00;;;8.07;;
9888;SDS011;4983;42.112;24.738;2022-12-18T12:49:44;9.07;;;8.17;;
9888;SDS011;4983;42.112;24.738;2022-12-18T12:52:14;9.80;;;8.57;;
9888;SDS011;4983;42.112;24.738;2022-12-18T12:54:42;10.43;;;8.63;;
9888;SDS011;4983;42.112;24.738;2022-12-18T12:57:09;10.50;;;8.20;;
9888;SDS011;4983;42.112;24.738;2022-12-18T12:59:40;10.93;;;9.13;;
9888;SDS011;4983;42.112;24.738;2022-12-18T13:02:13;9.60;;;8.60;;
9888;SDS011;4983;42.112;24.738;2022-12-18T13:04:46;10.60;;;9.33;;
9888;SDS011;4983;42.112;24.738;2022-12-18T13:07:14;11.27;;;9.43;;
9888;SDS011;4983;42.112;24.738;2022-12-18T13:12:23;12.37;;;9.17;;
9888;SDS011;4983;42.112;24.738;2022-12-18T13:15:19;10.33;;;8.87;;
9888;SDS011;4983;42.112;24.738;2022-12-18T13:17:47;10.17;;;8.87;;
9888;SDS011;4983;42.112;24.738;2022-12-18T13:20:15;14.60;;;10.20;;
9888;SDS011;4983;42.112;24.738;2022-12-18T13:22:44;14.10;;;11.30;;
9888;SDS011;4983;42.112;24.738;2022-12-18T13:25:30;13.10;;;10.97;;
9888;SDS011;4983;42.112;24.738;2022-12-18T13:27:59;14.27;;;10.50;;
9888;SDS011;4983;42.112;24.738;2022-12-18T13:30:41;14.07;;;11.60;;
9888;SDS011;4983;42.112;24.738;2022-12-18T13:36:00;19.00;;;11.13;;
9888;SDS011;4983;42.112;24.738;2022-12-18T13:38:32;12.10;;;10.63;;
9888;SDS011;4983;42.112;24.738;2022-12-18T13:40:59;15.37;;;11.57;;
9888;SDS011;4983;42.112;24.738;2022-12-18T13:43:33;14.27;;;11.03;;
9888;SDS011;4983;42.112;24.738;2022-12-18T13:46:01;13.20;;;11.37;;
9888;SDS011;4983;42.112;24.738;2022-12-18T13:48:29;12.90;;;11.53;;
9888;SDS011;4983;42.112;24.738;2022-12-18T13:51:00;17.27;;;13.17;;
9888;SDS011;4983;42.112;24.738;2022-12-18T13:53:30;15.10;;;12.70;;
9888;SDS011;4983;42.112;24.738;2022-12-18T13:55:58;13.80;;;11.20;;
9888;SDS011;4983;42.112;24.738;2022-12-18T13:58:25;15.33;;;13.03;;
9888;SDS011;4983;42.112;24.738;2022-12-18T14:00:51;16.23;;;13.03;;
9888;SDS011;4983;42.112;24.738;2022-12-18T14:03:19;17.80;;;14.43;;
9888;SDS011;4983;42.112;24.738;2022-12-18T14:05:46;20.97;;;15.37;;
9888;SDS011;4983;42.112;24.738;2022-12-18T14:08:20;20.80;;;15.80;;
9888;SDS011;4983;42.112;24.738;2022-12-18T14:10:47;19.53;;;16.27;;
9888;SDS011;4983;42.112;24.738;2022-12-18T14:13:15;17.00;;;14.83;;
9888;SDS011;4983;42.112;24.738;2022-12-18T14:15:42;15.87;;;12.97;;
9888;SDS011;4983;42.112;24.738;2022-12-18T14:18:15;20.03;;;13.70;;
9888;SDS011;4983;42.112;24.738;2022-12-18T14:20:45;15.57;;;13.57;;
9888;SDS011;4983;42.112;24.738;2022-12-18T14:23:26;18.43;;;15.60;;
9888;SDS011;4983;42.112;24.738;2022-12-18T14:25:53;20.27;;;16.33;;
9888;SDS011;4983;42.112;24.738;2022-12-18T14:28:20;18.13;;;15.73;;
9888;SDS011;4983;42.112;24.738;2022-12-18T14:30:47;21.13;;;18.93;;
9888;SDS011;4983;42.112;24.738;2022-12-18T14:33:15;21.47;;;18.47;;
9888;SDS011;4983;42.112;24.738;2022-12-18T14:35:51;18.00;;;15.37;;
9888;SDS011;4983;42.112;24.738;2022-12-18T14:38:22;15.95;;;14.35;;
9888;SDS011;4983;42.112;24.738;2022-12-18T14:40:55;14.80;;;12.67;;
9888;SDS011;4983;42.112;24.738;2022-12-18T14:43:26;17.97;;;14.33;;
9888;SDS011;4983;42.112;24.738;2022-12-18T14:45:53;15.20;;;11.87;;
9888;SDS011;4983;42.112;24.738;2022-12-18T14:48:20;17.57;;;13.07;;
9888;SDS011;4983;42.112;24.738;2022-12-18T14:50:54;16.70;;;12.47;;
9888;SDS011;4983;42.112;24.738;2022-12-18T14:53:21;14.73;;;11.50;;
9888;SDS011;4983;42.112;24.738;2022-12-18T14:55:49;15.07;;;11.37;;
9888;SDS011;4983;42.112;24.738;2022-12-18T14:58:17;13.67;;;11.53;;
9888;SDS011;4983;42.112;24.738;2022-12-18T15:00:44;15.20;;;11.90;;
9888;SDS011;4983;42.112;24.738;2022-12-18T15:03:12;14.07;;;11.40;;